createdAt,value
2023-03-17T00:01:17.256Z,5.98
2023-03-17T00:03:47.222Z,6.00
2023-03-17T00:06:17.514Z,5.98
2023-03-17T00:08:46.315Z,5.98
2023-03-17T00:11:15.190Z,5.94
2023-03-17T00:13:44.544Z,5.94
2023-03-17T00:16:16.865Z,5.93
2023-03-17T00:18:44.765Z,5.96
2023-03-17T00:21:15.599Z,5.90
2023-03-17T00:23:47.914Z,5.94
2023-03-17T00:26:16.082Z,5.98
2023-03-17T00:28:45.656Z,5.99
2023-03-17T00:31:16.611Z,5.93
2023-03-17T00:33:46.469Z,5.93
2023-03-17T00:36:17.934Z,5.93
2023-03-17T00:38:46.003Z,5.98
2023-03-17T00:41:13.708Z,5.98
2023-03-17T00:43:41.968Z,5.98
2023-03-17T00:46:14.607Z,6.00
2023-03-17T00:48:43.418Z,5.92
2023-03-17T00:51:12.594Z,5.96
2023-03-17T00:53:40.673Z,6.01
2023-03-17T00:56:15.478Z,5.91
2023-03-17T00:58:44.586Z,5.99
2023-03-17T01:01:14.033Z,5.97
2023-03-17T01:03:41.862Z,5.87
2023-03-17T01:06:12.550Z,5.88
2023-03-17T01:08:41.525Z,5.86
2023-03-17T01:11:16.227Z,5.87
2023-03-17T01:13:43.889Z,5.80
2023-03-17T01:16:12.351Z,5.84
2023-03-17T01:18:41.359Z,5.84
2023-03-17T01:21:09.198Z,5.78
2023-03-17T01:23:37.325Z,5.78
2023-03-17T01:26:05.058Z,5.69
2023-03-17T01:28:32.593Z,5.71
2023-03-17T01:31:00.479Z,5.66
2023-03-17T01:33:27.990Z,5.69
2023-03-17T01:35:57.354Z,5.58
2023-03-17T01:38:25.534Z,5.62
2023-03-17T01:40:54.774Z,5.59
2023-03-17T01:43:24.356Z,5.51
2023-03-17T01:46:25.015Z,5.50
2023-03-17T01:49:04.374Z,5.46
2023-03-17T01:51:38.601Z,5.41
2023-03-17T01:54:09.315Z,5.40
2023-03-17T01:56:38.885Z,5.40
2023-03-17T01:59:09.490Z,5.38
2023-03-17T02:01:42.079Z,5.34
2023-03-17T02:04:11.574Z,5.41
2023-03-17T02:06:56.800Z,5.32
2023-03-17T02:09:25.290Z,5.26
2023-03-17T02:11:54.368Z,5.26
2023-03-17T02:14:22.135Z,5.22
2023-03-17T02:16:49.813Z,5.25
2023-03-17T02:19:17.405Z,5.17
2023-03-17T02:21:48.138Z,5.24
2023-03-17T02:24:26.347Z,5.21
2023-03-17T02:26:56.567Z,5.17
2023-03-17T02:29:24.763Z,5.20
2023-03-17T02:31:53.378Z,5.17
2023-03-17T02:34:22.516Z,5.18
2023-03-17T02:36:51.374Z,5.25
2023-03-17T02:39:19.356Z,5.24
2023-03-17T02:41:47.761Z,5.23
2023-03-17T02:44:15.842Z,5.23
2023-03-17T02:46:43.429Z,5.27
2023-03-17T02:49:11.915Z,5.21
2023-03-17T02:51:39.632Z,5.23
2023-03-17T02:54:08.898Z,5.23
2023-03-17T02:56:36.635Z,5.21
2023-03-17T02:59:04.252Z,5.17
2023-03-17T03:01:32.114Z,5.20
2023-03-17T03:03:59.719Z,5.20
2023-03-17T03:06:27.387Z,5.15
2023-03-17T03:08:55.017Z,5.23
2023-03-17T03:11:24.177Z,5.22
2023-03-17T03:13:51.833Z,5.22
2023-03-17T03:16:19.426Z,5.27
2023-03-17T03:18:47.170Z,5.26
2023-03-17T03:21:15.361Z,5.21
2023-03-17T03:23:43.229Z,5.17
2023-03-17T03:26:10.886Z,5.13
2023-03-17T03:28:39.916Z,5.15
2023-03-17T03:31:07.806Z,5.17
2023-03-17T03:33:36.384Z,5.24
2023-03-17T03:36:04.144Z,5.24
2023-03-17T03:38:31.722Z,5.26
2023-03-17T03:40:59.244Z,5.31
2023-03-17T03:43:27.002Z,5.27
2023-03-17T03:45:55.893Z,5.25
2023-03-17T03:48:23.774Z,5.20
2023-03-17T03:50:51.315Z,5.25
2023-03-17T03:53:18.910Z,5.22
2023-03-17T03:55:46.614Z,5.21
2023-03-17T03:58:14.152Z,5.16
2023-03-17T04:00:41.743Z,5.13
2023-03-17T04:03:10.773Z,5.11
2023-03-17T04:05:38.289Z,5.09
2023-03-17T04:08:06.610Z,5.14
2023-03-17T04:10:34.257Z,5.06
2023-03-17T04:13:01.815Z,5.03
2023-03-17T04:15:29.698Z,5.01
2023-03-17T04:17:57.392Z,5.04
2023-03-17T04:20:26.617Z,5.03
2023-03-17T04:22:54.269Z,4.99
2023-03-17T04:25:21.817Z,4.97
2023-03-17T04:27:49.541Z,4.90
2023-03-17T04:30:17.690Z,4.97
2023-03-17T04:32:46.341Z,4.94
2023-03-17T04:35:16.663Z,4.93
2023-03-17T04:37:46.476Z,5.01
2023-03-17T04:40:14.850Z,4.97
2023-03-17T04:42:42.509Z,4.94
2023-03-17T04:45:12.511Z,4.95
2023-03-17T04:47:40.486Z,5.00
2023-03-17T04:50:09.012Z,4.96
2023-03-17T04:52:37.384Z,4.89
2023-03-17T04:55:09.166Z,4.94
2023-03-17T04:57:36.997Z,4.96
2023-03-17T05:00:06.227Z,4.98
2023-03-17T05:02:33.806Z,4.94
2023-03-17T05:05:01.989Z,4.90
2023-03-17T05:07:29.579Z,4.87
2023-03-17T05:09:57.815Z,4.86
2023-03-17T05:12:26.913Z,4.91
2023-03-17T05:14:54.452Z,4.88
2023-03-17T05:17:22.014Z,4.93
2023-03-17T05:19:50.258Z,4.94
2023-03-17T05:22:17.828Z,5.00
2023-03-17T05:24:45.480Z,4.93
2023-03-17T05:27:12.992Z,4.92
2023-03-17T05:29:42.275Z,4.85
2023-03-17T05:32:09.961Z,4.82
2023-03-17T05:34:37.506Z,4.82
2023-03-17T05:37:05.061Z,4.78
2023-03-17T05:39:32.774Z,4.75
2023-03-17T05:42:00.485Z,4.75
2023-03-17T05:44:28.105Z,4.76
2023-03-17T05:46:59.542Z,4.73
2023-03-17T05:49:27.555Z,4.70
2023-03-17T05:51:55.253Z,4.71
2023-03-17T05:54:23.989Z,4.77
2023-03-17T05:56:51.559Z,4.78
2023-03-17T05:59:19.125Z,4.77
2023-03-17T06:01:46.933Z,4.86
2023-03-17T06:04:15.901Z,4.93
2023-03-17T06:06:43.674Z,4.85
2023-03-17T06:09:11.216Z,4.84
2023-03-17T06:11:38.876Z,4.90
2023-03-17T06:14:07.210Z,4.97
2023-03-17T06:16:34.754Z,4.92
2023-03-17T06:19:02.442Z,4.94
2023-03-17T06:21:31.394Z,5.02
2023-03-17T06:23:58.948Z,4.98
2023-03-17T06:26:27.109Z,5.00
2023-03-17T06:28:54.690Z,5.02
2023-03-17T06:31:23.844Z,4.99
2023-03-17T06:33:52.068Z,5.09
2023-03-17T06:36:19.660Z,5.17
2023-03-17T06:38:48.598Z,5.21
2023-03-17T06:41:16.209Z,5.24
2023-03-17T06:43:43.706Z,5.21
2023-03-17T06:46:11.363Z,5.32
2023-03-17T06:48:39.193Z,5.39
2023-03-17T06:51:07.139Z,5.39
2023-03-17T06:53:34.652Z,5.37
2023-03-17T06:56:04.934Z,5.41
2023-03-17T06:58:33.073Z,5.37
2023-03-17T07:01:00.653Z,5.53
2023-03-17T07:03:28.577Z,5.62
2023-03-17T07:05:56.132Z,5.60
2023-03-17T07:08:23.678Z,5.69
2023-03-17T07:10:51.401Z,5.79
2023-03-17T07:13:20.839Z,5.89
2023-03-17T07:15:49.751Z,5.78
2023-03-17T07:18:18.777Z,5.88
2023-03-17T07:20:46.788Z,5.83
2023-03-17T07:23:16.361Z,5.88
2023-03-17T07:25:45.512Z,5.88
2023-03-17T07:28:13.022Z,5.97
2023-03-17T07:30:46.467Z,6.05
2023-03-17T07:33:14.541Z,6.03
2023-03-17T07:35:42.503Z,6.11
2023-03-17T07:38:10.170Z,6.25
2023-03-17T07:40:38.681Z,6.31
2023-03-17T07:43:06.530Z,6.40
2023-03-17T07:45:35.882Z,6.54
2023-03-17T07:48:05.867Z,6.65
2023-03-17T07:50:33.482Z,6.62
2023-03-17T07:53:01.508Z,6.69
2023-03-17T07:55:29.238Z,6.80
2023-03-17T07:57:57.425Z,6.91
2023-03-17T08:00:27.006Z,6.91
2023-03-17T08:03:09.005Z,7.05
2023-03-17T08:05:39.574Z,7.13
2023-03-17T08:08:07.426Z,7.29
2023-03-17T08:10:35.621Z,7.52
2023-03-17T08:13:03.966Z,7.72
2023-03-17T08:15:31.721Z,7.93
2023-03-17T08:17:59.531Z,8.04
2023-03-17T08:20:27.157Z,8.00
2023-03-17T08:22:57.202Z,8.05
2023-03-17T08:25:24.946Z,8.16
2023-03-17T08:27:52.724Z,8.06
2023-03-17T08:30:21.695Z,7.96
2023-03-17T08:32:49.304Z,8.15
2023-03-17T08:35:18.483Z,8.15
2023-03-17T08:37:47.471Z,8.28
2023-03-17T08:40:19.641Z,8.09
2023-03-17T08:42:49.027Z,8.22
2023-03-17T08:45:19.297Z,8.16
2023-03-17T08:47:47.662Z,8.36
2023-03-17T08:50:20.013Z,8.46
2023-03-17T08:52:48.612Z,8.54
2023-03-17T08:55:17.617Z,8.65
2023-03-17T08:57:46.135Z,8.95
2023-03-17T09:00:16.102Z,9.26
2023-03-17T09:02:44.989Z,9.45
2023-03-17T09:05:14.783Z,9.39
2023-03-17T09:07:43.514Z,9.46
2023-03-17T09:10:13.565Z,9.49
2023-03-17T09:12:42.755Z,9.45
2023-03-17T09:15:12.321Z,9.40
2023-03-17T09:17:39.902Z,9.58
2023-03-17T09:20:08.661Z,9.80
2023-03-17T09:22:36.193Z,10.03
2023-03-17T09:25:04.181Z,10.21
2023-03-17T09:27:31.726Z,10.48
2023-03-17T09:30:00.787Z,10.82
2023-03-17T09:32:28.357Z,11.11
2023-03-17T09:34:56.179Z,11.09
2023-03-17T09:37:23.890Z,11.30
2023-03-17T09:39:51.848Z,11.37
2023-03-17T09:42:34.689Z,11.46
2023-03-17T09:45:13.933Z,11.30
2023-03-17T09:47:58.322Z,11.53
2023-03-17T09:50:30.231Z,11.39
2023-03-17T09:52:59.055Z,11.36
2023-03-17T09:55:29.964Z,11.59
2023-03-17T09:57:58.712Z,11.57
2023-03-17T10:00:31.071Z,11.49
2023-03-17T10:02:59.654Z,11.70
2023-03-17T10:05:30.238Z,11.68
2023-03-17T10:08:18.947Z,11.87
2023-03-17T10:10:58.686Z,11.93
2023-03-17T10:13:38.123Z,12.09
2023-03-17T10:16:10.413Z,12.15
2023-03-17T10:18:44.806Z,12.05
2023-03-17T10:21:16.882Z,11.77
2023-03-17T10:23:46.291Z,11.80
2023-03-17T10:26:25.253Z,12.16
2023-03-17T10:28:54.284Z,11.86
2023-03-17T10:31:32.937Z,11.94
2023-03-17T10:34:14.328Z,12.07
2023-03-17T10:36:44.907Z,12.04
2023-03-17T10:39:15.134Z,12.12
2023-03-17T10:41:55.251Z,11.89
2023-03-17T10:44:30.658Z,12.00
2023-03-17T10:46:59.611Z,12.04
2023-03-17T10:49:27.197Z,12.19
2023-03-17T10:51:55.494Z,12.30
2023-03-17T10:54:26.410Z,12.48
2023-03-17T10:57:02.093Z,12.59
2023-03-17T11:02:20.159Z,12.64
2023-03-17T11:04:48.355Z,12.66
2023-03-17T11:07:18.810Z,12.92
2023-03-17T11:09:50.639Z,13.21
2023-03-17T11:12:26.321Z,13.31
2023-03-17T11:15:00.320Z,13.73
2023-03-17T11:17:43.794Z,13.61
2023-03-17T11:20:32.294Z,13.63
2023-03-17T11:23:05.786Z,14.13
2023-03-17T11:25:36.961Z,13.93
2023-03-17T11:28:17.757Z,13.96
2023-03-17T11:30:50.106Z,13.97
2023-03-17T11:33:33.554Z,13.82
2023-03-17T11:36:07.172Z,13.90
2023-03-17T11:38:38.783Z,13.97
2023-03-17T11:41:35.642Z,13.87
2023-03-17T11:44:28.889Z,14.05
2023-03-17T11:47:07.349Z,14.10
2023-03-17T11:49:38.563Z,14.09
2023-03-17T11:52:21.878Z,14.19
2023-03-17T11:54:59.029Z,14.35
2023-03-17T11:57:32.196Z,14.71
2023-03-17T12:00:03.254Z,14.69
2023-03-17T12:02:44.428Z,14.89
2023-03-17T12:05:16.812Z,14.75
2023-03-17T12:07:48.918Z,14.82
2023-03-17T12:10:23.463Z,14.92
2023-03-17T12:12:56.321Z,15.15
2023-03-17T12:15:32.357Z,15.23
2023-03-17T12:18:06.789Z,15.46
2023-03-17T12:20:46.295Z,15.66
2023-03-17T12:23:22.349Z,15.41
2023-03-17T12:25:57.557Z,15.56
2023-03-17T12:28:28.381Z,15.73
2023-03-17T12:31:02.205Z,15.56
2023-03-17T12:33:35.463Z,15.67
2023-03-17T12:36:05.286Z,15.51
2023-03-17T12:38:39.010Z,15.48
2023-03-17T12:41:29.622Z,15.78
2023-03-17T12:44:05.791Z,16.08
2023-03-17T12:46:50.181Z,16.03
2023-03-17T12:49:34.790Z,16.12
2023-03-17T12:52:14.334Z,16.36
2023-03-17T12:54:47.797Z,16.14
2023-03-17T12:57:19.116Z,16.15
2023-03-17T12:59:49.708Z,16.15
2023-03-17T13:02:25.290Z,16.32
2023-03-17T13:04:57.897Z,16.24
2023-03-17T13:07:32.453Z,16.31
2023-03-17T13:10:22.009Z,16.50
2023-03-17T13:13:10.997Z,16.43
2023-03-17T13:15:59.769Z,16.39
2023-03-17T13:18:51.306Z,16.49
2023-03-17T13:21:26.317Z,16.31
2023-03-17T13:24:01.270Z,16.23
2023-03-17T13:27:01.794Z,16.02
2023-03-17T13:29:53.579Z,16.26
2023-03-17T13:32:38.173Z,16.65
2023-03-17T13:35:40.108Z,16.66
2023-03-17T13:38:32.525Z,16.58
2023-03-17T13:41:19.967Z,16.31
2023-03-17T13:44:06.896Z,16.35
2023-03-17T13:46:42.622Z,16.64
2023-03-17T13:49:24.401Z,16.67
2023-03-17T13:51:59.936Z,16.77
2023-03-17T13:54:33.635Z,16.54
2023-03-17T13:57:24.677Z,16.53
2023-03-17T14:00:00.699Z,16.52
2023-03-17T14:02:32.565Z,16.63
2023-03-17T14:05:03.268Z,16.83
2023-03-17T14:07:42.276Z,16.75
2023-03-17T14:10:17.985Z,16.88
2023-03-17T14:12:53.089Z,16.88
2023-03-17T14:15:26.011Z,17.10
2023-03-17T14:17:58.412Z,17.17
2023-03-17T14:20:28.279Z,17.12
2023-03-17T14:22:58.143Z,17.05
2023-03-17T14:25:27.609Z,17.00
2023-03-17T14:27:58.844Z,16.97
2023-03-17T14:30:30.457Z,17.00
2023-03-17T14:33:04.505Z,17.15
2023-03-17T14:35:33.793Z,17.32
2023-03-17T14:38:02.669Z,17.25
2023-03-17T14:40:36.669Z,17.32
2023-03-17T14:43:06.134Z,17.06
2023-03-17T14:45:48.603Z,16.97
2023-03-17T14:48:18.685Z,16.95
2023-03-17T14:50:52.093Z,16.99
2023-03-17T14:53:22.350Z,17.08
2023-03-17T14:55:49.904Z,17.05
2023-03-17T14:58:25.231Z,16.92
2023-03-17T15:00:58.119Z,16.68
2023-03-17T15:03:31.511Z,16.68
2023-03-17T15:06:08.161Z,16.55
2023-03-17T15:08:47.078Z,16.66
2023-03-17T15:11:21.373Z,16.63
2023-03-17T15:13:51.636Z,16.48
2023-03-17T15:16:23.769Z,16.55
2023-03-17T15:18:58.289Z,16.41
2023-03-17T15:21:33.546Z,16.34
2023-03-17T15:24:05.721Z,16.36
2023-03-17T15:26:33.433Z,16.30
2023-03-17T15:29:02.383Z,16.16
2023-03-17T15:31:30.646Z,16.21
2023-03-17T15:33:58.967Z,16.12
2023-03-17T15:36:32.616Z,16.12
2023-03-17T15:39:00.517Z,16.07
2023-03-17T15:41:28.121Z,16.02
2023-03-17T15:43:56.708Z,15.94
2023-03-17T15:46:30.713Z,15.87
2023-03-17T15:48:58.767Z,15.82
2023-03-17T15:51:26.378Z,15.77
2023-03-17T15:53:53.933Z,15.63
2023-03-17T15:56:22.353Z,15.59
2023-03-17T15:58:52.131Z,15.50
2023-03-17T16:01:20.894Z,15.46
2023-03-17T16:03:50.465Z,15.46
2023-03-17T16:06:19.309Z,15.38
2023-03-17T16:08:46.886Z,15.38
2023-03-17T16:11:19.211Z,15.34
2023-03-17T16:13:48.063Z,15.33
2023-03-17T16:16:22.574Z,15.36
2023-03-17T16:18:52.505Z,15.28
2023-03-17T16:21:20.808Z,15.27
2023-03-17T16:23:49.739Z,15.25
2023-03-17T16:26:17.391Z,15.21
2023-03-17T16:28:46.253Z,15.18
2023-03-17T16:31:32.020Z,15.11
2023-03-17T16:34:01.415Z,15.06
2023-03-17T16:36:29.189Z,15.03
2023-03-17T16:38:57.053Z,15.00
2023-03-17T16:41:27.190Z,14.97
2023-03-17T16:43:59.802Z,14.92
2023-03-17T16:46:28.942Z,14.89
2023-03-17T16:48:56.580Z,14.87
2023-03-17T16:51:25.662Z,14.85
2023-03-17T16:53:53.349Z,14.82
2023-03-17T16:56:23.774Z,14.82
2023-03-17T16:58:51.689Z,14.81
2023-03-17T17:01:22.602Z,14.68
2023-03-17T17:03:50.500Z,14.65
2023-03-17T17:06:20.561Z,14.56
2023-03-17T17:08:50.802Z,14.53
2023-03-17T17:11:19.995Z,14.50
2023-03-17T17:13:49.024Z,14.42
2023-03-17T17:16:21.254Z,14.36
2023-03-17T17:18:48.962Z,14.20
2023-03-17T17:21:16.644Z,14.25
2023-03-17T17:23:44.130Z,14.18
2023-03-17T17:26:13.017Z,14.18
2023-03-17T17:28:40.564Z,14.17
2023-03-17T17:31:09.188Z,14.16
2023-03-17T17:33:38.265Z,14.13
2023-03-17T17:36:08.918Z,14.06
2023-03-17T17:38:36.452Z,13.99
2023-03-17T17:41:05.683Z,13.93
2023-03-17T17:43:34.654Z,13.89
2023-03-17T17:46:02.263Z,13.73
2023-03-17T17:48:30.335Z,13.70
2023-03-17T17:50:58.719Z,13.72
2023-03-17T17:53:26.285Z,13.75
2023-03-17T17:55:53.847Z,13.78
2023-03-17T17:58:23.435Z,13.75
2023-03-17T18:00:54.955Z,13.73
2023-03-17T18:03:25.093Z,13.72
2023-03-17T18:05:53.233Z,13.74
2023-03-17T18:08:21.038Z,13.72
2023-03-17T18:10:51.444Z,13.67
2023-03-17T18:13:19.455Z,13.63
2023-03-17T18:15:47.043Z,13.59
2023-03-17T18:18:15.933Z,13.56
2023-03-17T18:20:43.527Z,13.52
2023-03-17T18:23:11.225Z,13.48
2023-03-17T18:25:38.728Z,13.43
2023-03-17T18:28:06.377Z,13.37
2023-03-17T18:30:34.996Z,13.34
2023-03-17T18:33:07.385Z,13.29
2023-03-17T18:35:36.616Z,13.24
2023-03-17T18:38:04.466Z,13.19
2023-03-17T18:40:32.263Z,13.13
2023-03-17T18:42:59.803Z,13.09
2023-03-17T18:45:27.586Z,13.06
2023-03-17T18:47:55.345Z,13.05
2023-03-17T18:50:23.052Z,13.01
2023-03-17T18:52:51.978Z,13.00
2023-03-17T18:55:19.924Z,12.96
2023-03-17T18:57:47.514Z,12.92
2023-03-17T19:00:18.485Z,12.88
2023-03-17T19:02:46.872Z,12.83
2023-03-17T19:05:15.236Z,12.79
2023-03-17T19:07:43.226Z,12.72
2023-03-17T19:10:13.849Z,12.70
2023-03-17T19:12:42.290Z,12.69
2023-03-17T19:15:12.352Z,12.67
2023-03-17T19:17:40.204Z,12.64
2023-03-17T19:20:09.932Z,12.60
2023-03-17T19:22:37.613Z,12.57
2023-03-17T19:25:06.229Z,12.55
2023-03-17T19:27:35.282Z,12.50
2023-03-17T19:30:02.833Z,12.46
2023-03-17T19:32:30.398Z,12.43
2023-03-17T19:34:57.954Z,12.38
2023-03-17T19:37:25.933Z,12.34
2023-03-17T19:39:53.518Z,12.34
2023-03-17T19:42:21.081Z,12.32
2023-03-17T19:44:49.962Z,12.29
2023-03-17T19:47:17.549Z,12.29
2023-03-17T19:49:45.850Z,12.26
2023-03-17T19:52:13.493Z,12.22
2023-03-17T19:54:44.541Z,12.14
2023-03-17T19:57:13.098Z,12.07
2023-03-17T19:59:40.786Z,12.03
2023-03-17T20:02:14.006Z,12.01
2023-03-17T20:04:42.844Z,11.97
2023-03-17T20:07:11.262Z,11.94
2023-03-17T20:09:39.230Z,11.90
2023-03-17T20:12:07.089Z,11.84
2023-03-17T20:14:34.733Z,11.86
2023-03-17T20:17:02.321Z,11.80
2023-03-17T20:19:31.567Z,11.80
2023-03-17T20:21:59.119Z,11.80
2023-03-17T20:24:28.551Z,11.77
2023-03-17T20:26:57.872Z,11.74
2023-03-17T20:29:25.878Z,11.72
2023-03-17T20:31:53.814Z,11.72
2023-03-17T20:34:21.528Z,11.68
2023-03-17T20:36:51.802Z,11.63
2023-03-17T20:39:20.589Z,11.62
2023-03-17T20:41:48.925Z,11.59
2023-03-17T20:44:17.617Z,11.55
2023-03-17T20:46:45.703Z,11.54
2023-03-17T20:49:13.679Z,11.53
2023-03-17T20:51:41.379Z,11.52
2023-03-17T20:54:11.023Z,11.50
2023-03-17T20:56:39.576Z,11.49
2023-03-17T20:59:09.516Z,11.44
2023-03-17T21:01:38.999Z,11.40
2023-03-17T21:04:08.919Z,11.44
2023-03-17T21:06:36.649Z,11.43
2023-03-17T21:09:04.799Z,11.44
2023-03-17T21:11:33.666Z,11.43
2023-03-17T21:14:03.275Z,11.42
2023-03-17T21:16:31.301Z,11.42
2023-03-17T21:18:58.958Z,11.38
2023-03-17T21:21:27.213Z,11.36
2023-03-17T21:23:54.926Z,11.34
2023-03-17T21:26:22.908Z,11.32
2023-03-17T21:28:52.491Z,11.33
2023-03-17T21:31:20.219Z,11.36
2023-03-17T21:33:50.300Z,11.35
2023-03-17T21:36:18.449Z,11.36
2023-03-17T21:38:46.009Z,11.35
2023-03-17T21:41:30.232Z,11.32
2023-03-17T21:43:59.084Z,11.23
2023-03-17T21:46:26.896Z,11.26
2023-03-17T21:48:55.858Z,11.26
2023-03-17T21:51:24.269Z,11.27
2023-03-17T21:53:52.751Z,11.23
2023-03-17T21:56:20.758Z,11.19
2023-03-17T21:58:48.916Z,11.19
2023-03-17T22:01:18.951Z,11.21
2023-03-17T22:03:46.569Z,11.19
2023-03-17T22:06:15.542Z,11.22
2023-03-17T22:08:43.964Z,11.21
2023-03-17T22:11:14.089Z,11.20
2023-03-17T22:13:41.937Z,11.23
2023-03-17T22:16:10.130Z,11.24
2023-03-17T22:18:39.440Z,11.22
2023-03-17T22:21:08.076Z,11.24
2023-03-17T22:23:40.729Z,11.26
2023-03-17T22:26:09.605Z,11.26
2023-03-17T22:28:37.781Z,11.26
2023-03-17T22:31:11.932Z,11.27
2023-03-17T22:33:41.470Z,11.25
2023-03-17T22:36:09.740Z,11.26
2023-03-17T22:38:37.615Z,11.24
2023-03-17T22:41:07.708Z,11.25
2023-03-17T22:43:35.725Z,11.26
2023-03-17T22:46:03.632Z,11.27
2023-03-17T22:48:32.482Z,11.24
2023-03-17T22:51:03.055Z,11.23
2023-03-17T22:53:31.420Z,11.23
2023-03-17T22:55:59.138Z,11.22
2023-03-17T22:58:27.329Z,11.15
2023-03-17T23:00:56.187Z,11.15
2023-03-17T23:03:24.873Z,11.15
2023-03-17T23:05:54.361Z,11.13
2023-03-17T23:08:23.448Z,11.12
2023-03-17T23:10:52.039Z,11.09
2023-03-17T23:13:20.927Z,11.06
2023-03-17T23:15:49.055Z,11.03
2023-03-17T23:18:16.825Z,11.02
2023-03-17T23:20:44.504Z,10.99
2023-03-17T23:23:12.630Z,10.98
2023-03-17T23:25:41.872Z,10.96
2023-03-17T23:28:10.043Z,10.94
2023-03-17T23:30:38.485Z,10.93
2023-03-17T23:33:07.510Z,10.93
2023-03-17T23:35:35.654Z,10.90
2023-03-17T23:38:03.970Z,10.93
2023-03-17T23:40:32.500Z,10.94
2023-03-17T23:43:01.840Z,10.93
2023-03-17T23:45:29.426Z,10.91
2023-03-17T23:47:57.407Z,10.90
2023-03-17T23:50:25.036Z,10.91
2023-03-17T23:52:53.936Z,10.87
2023-03-17T23:55:21.739Z,10.90
2023-03-17T23:57:50.227Z,10.90
